Salina, KS (67401)

10:38 AM CST on December 07, 2016 (GMT -0600)
| | Change Station

Elev -9999 ft 0.00 °N, 0.00 °E | Updated

Mostly Cloudy
Mostly Cloudy
67 °F
Feels Like 67 °F
N
12
Wind Variable Wind from SE
Gusts 19 mph

Today
High -- | Low -- °F
--% Chance of Precip.
Yesterday
High -- | Low -- °F
Precip. -- in
Pressure 30.36 in
Visibility 2.0 miles
Clouds Mostly Cloudy 3000 ft
Overcast 3800 ft
Dew Point 61 °F
Humidity 80%
Rainfall --
Snow Depth Not available.
7:35 AM 5:08 PM
First Quarter, 54% visible
SPECI KSLN 071616Z 01010KT 2SM -SN BKN030 OVC038 M03/M07 A3036 RMK AO2 P0000 T10331072
Pressure 30.36 in
Visibility 2.0 miles
Clouds Mostly Cloudy 3000 ft
Overcast 3800 ft
Dew Point 61 °F
Humidity 80%
Rainfall --
Snow Depth Not available.
7:35 AM 5:08 PM
First Quarter, 54% visible
SPECI KSLN 071616Z 01010KT 2SM -SN BKN030 OVC038 M03/M07 A3036 RMK AO2 P0000 T10331072

10-Day Weather Forecast

Almanac

Astronomy

Dec. 07, 2016 Rise Set
Actual Time
Civil Twilight
Nautical Twilight
Astronomical Twilight
Moon
Length of Visible Light
Length of Day
Tomorrow will be .
, % of the Moon is Illuminated

Today's Extremes

State Highs State Lows

Community

WunderPhotos

Upload Photos

1,956,124 photos uploaded!

WunderBlog® & News

Nearby

Air Quality

  Air Quality AQ Index Pollutant
Not available.

Snow Depth

Station Depth Elevation

Earthquake Activity

City Distance Mag. Time & Date
Minimum magnitude displayed is 2.5.

Coastal Water Temperatures

Place Temperature

Stations

Nearby Weather Stations

Station Location Temp. Windchill Dew Point Humidity Wind Precip. Elev Updated Type
                   

Watches & Warnings

There are currently no watches in effect.